Terminal Aerodrome Forecast
Issued by NWS St Louis, MO

Home | Current Version | Previous Version | Text Only | Print | Product List | Glossary On
Versions: 1 2 3 4 5 6 7 8 9 10 11 12 13 14 15 16 17 18 19 20 21
000
FTUS43 KLSX 201200 AAA
TAFCOU
TAF AMD
KCOU 201211Z 2012/2112 17006KT P6SM SCT250
      TEMPO 2012/2013 2SM BR
     FM201400 22010KT P6SM SCT040 BKN250
     FM210100 24008KT P6SM VCTS SCT040CB BKN100
     FM210600 27009KT P6SM BKN040=

USA.gov is the U.S. government's official web portal to all federal, state and local government web resources and services.